London Gatwick Airport

EGKK · England, United Kingdom

October 1, 2022

Time Code Weather Temp. Visibility Ceiling Wind METAR/SPECI
23:50
V
14 °C 10 km+ - 250° 250° 7 kt METAR EGKK 012250Z 25007KT 9999 -RA NSC 14/11 Q1015
23:20
V
15 °C 10 km+ - 240° 240° 7 kt METAR EGKK 012220Z 24007KT 9999 -RA NSC 15/11 Q1015
22:50
V
15 °C 10 km+ - 240° 240° 8 kt METAR EGKK 012150Z 24008KT CAVOK 15/11 Q1014
22:20
V
15 °C 10 km+ - 240° 240° 7 kt METAR EGKK 012120Z 24007KT CAVOK 15/11 Q1014
21:50
V
15 °C 10 km+ - 240° 240° 8 kt METAR EGKK 012050Z 24008KT CAVOK 15/10 Q1014
21:20
V
15 °C 10 km+ - 240° 240° 9 kt METAR EGKK 012020Z 24009KT CAVOK 15/10 Q1014
20:50
V
15 °C 10 km+ - 240° 240° 8 kt METAR EGKK 011950Z 24008KT CAVOK 15/11 Q1013
20:20
V
15 °C 10 km+ - 220° 220° 6 kt METAR EGKK 011920Z 22006KT CAVOK 15/10 Q1013
19:50
V
15 °C 10 km+ - 230° 230° 6 kt METAR EGKK 011850Z 23006KT CAVOK 15/10 Q1013
19:20
V
16 °C 10 km+ - 240° 240° 6 kt METAR EGKK 011820Z 24006KT CAVOK 16/10 Q1012
18:50
V
16 °C 10 km+ - 240° 240° 7 kt METAR EGKK 011750Z 24007KT CAVOK 16/10 Q1012
18:20
V
17 °C 10 km+ - 250° 250° 11 kt METAR EGKK 011720Z 25011KT CAVOK 17/09 Q1011
17:50
V
17 °C 10 km+ - 250° 250° 10 kt METAR EGKK 011650Z 25010KT 9999 FEW037 17/10 Q1011
17:20
V
17 °C 10 km+ - 260° 260° 11 kt METAR EGKK 011620Z 26011KT 9999 FEW047 17/10 Q1011
16:50
V
17 °C 10 km+ - 270° 270° 12 kt METAR EGKK 011550Z 27012KT 9999 FEW027 17/10 Q1010
16:20
V
18 °C 10 km+ - 250° 250° 11 kt METAR EGKK 011520Z 25011KT 9999 FEW032 18/10 Q1010
15:50
V
19 °C 10 km+ - 250° 250° 10 kt METAR EGKK 011450Z 25010KT 9999 FEW035 19/11 Q1010
15:20
V
18 °C 10 km+ - 260° 260° 13 kt METAR EGKK 011420Z 26013KT 9999 SCT041 18/11 Q1010
14:50
V
18 °C 10 km+ - 250° 250° 14 kt METAR EGKK 011350Z 25014KT 9999 FEW036 18/11 Q1009
14:20
V
18 °C 10 km+ - 260° 260° 11 kt METAR EGKK 011320Z 26011KT 9999 FEW018 SCT032 18/11 Q1009
13:50
V
18 °C 10 km+ - 250° 250° 15 kt METAR EGKK 011250Z 25015KT 9999 SCT034 18/10 Q1009
13:20
V
18 °C 10 km+ - 250° 250° 13 kt METAR EGKK 011220Z 25013KT 220V290 9999 FEW029 18/11 Q1009
12:50
V
17 °C 10 km+ - 260° 260° 14 kt METAR EGKK 011150Z 26014KT 9999 FEW036 17/11 Q1009
12:20
V
18 °C 10 km+ - 250° 250° 15 kt METAR EGKK 011120Z 25015KT 9999 FEW028 18/11 Q1009
11:50
V
17 °C 10 km+ - 270° 270° 15 kt METAR EGKK 011050Z 27015KT 9999 FEW026 17/11 Q1008
11:20
V
17 °C 10 km+ - 260° 260° 14 kt METAR EGKK 011020Z 26014KT 9999 FEW023 17/11 Q1008
10:50
V
16 °C 10 km+ - 260° 260° 14 kt METAR EGKK 010950Z 26014KT 9999 FEW020 16/12 Q1008
10:20
V
16 °C 10 km+ - 260° 260° 13 kt METAR EGKK 010920Z 26013KT 9999 FEW018 16/12 Q1007
09:50
V
15 °C 10 km+ - 260° 260° 12 kt METAR EGKK 010850Z 26012KT 9999 FEW018 15/12 Q1007
09:20
V
15 °C 10 km+ - 260° 260° 10 kt METAR EGKK 010820Z 26010KT 9999 FEW022 15/12 Q1006
08:50
V
14 °C 10 km+ - 240° 240° 9 kt METAR EGKK 010750Z 24009KT CAVOK 14/12 Q1006
08:20
V
13 °C 10 km+ - 250° 250° 6 kt METAR EGKK 010720Z 25006KT 9999 FEW020 13/12 Q1005
07:50
V
12 °C 10 km+ - 240° 240° 5 kt METAR EGKK 010650Z 24005KT 9999 FEW019 12/11 Q1005
07:20
V
12 °C 10 km+ - 240° 240° 6 kt METAR EGKK 010620Z 24006KT 9999 FEW025 12/11 Q1005
06:50
V
12 °C 10 km+ - 240° 240° 6 kt METAR EGKK 010550Z 24006KT 9999 FEW022 12/11 Q1004
06:20
V
13 °C 10 km+ - 240° 240° 6 kt METAR EGKK 010520Z 24006KT 9999 FEW020 SCT027 13/12 Q1004
05:50
M
13 °C 10 km+ 1,700 ft 240° 240° 5 kt METAR EGKK 010450Z 24005KT 9999 BKN017 13/12 Q1003
05:20
M
13 °C 10 km+ 1,700 ft 230° 230° 5 kt METAR EGKK 010420Z 23005KT 9999 BKN017 13/12 Q1003
04:50
V
13 °C 10 km+ - 230° 230° 6 kt METAR EGKK 010350Z 23006KT 9999 SCT020 13/12 Q1003
04:20
V
14 °C 10 km+ - 230° 230° 8 kt METAR EGKK 010320Z 23008KT 9999 FEW022 14/12 Q1002
03:50
V
14 °C 10 km+ - 240° 240° 7 kt METAR EGKK 010250Z 24007KT CAVOK 14/12 Q1002
03:20
V
14 °C 10 km+ - 240° 240° 9 kt METAR EGKK 010220Z 24009KT 9999 FEW049 14/13 Q1002
02:50
V
14 °C 10 km+ - 240° 240° 9 kt METAR EGKK 010150Z 24009KT 9999 FEW017 14/13 Q1001
02:20
V
15 °C 10 km+ - 240° 240° 8 kt METAR EGKK 010120Z 24008KT 9999 FEW047 15/13 Q1001
01:50
V
15 °C 10 km+ - 240° 240° 9 kt METAR EGKK 010050Z 24009KT CAVOK 15/13 Q1000
01:20
V
15 °C 10 km+ - 240° 240° 8 kt METAR EGKK 010020Z 24008KT 9999 FEW018 15/13 Q1000
00:50
V
15 °C 10 km+ - 270° 270° 8 kt METAR EGKK 302350Z 27008KT CAVOK 15/13 Q1000
00:20
V
15 °C 10 km+ - 250° 250° 9 kt METAR EGKK 302320Z 25009KT CAVOK 15/14 Q0999

September 30, 2022

Time Code Weather Temp. Visibility Ceiling Wind METAR/SPECI
23:50
V
16 °C 10 km+ - 260° 260° 10 kt METAR EGKK 302250Z 26010KT 9999 FEW016 16/14 Q0999
23:20
V
16 °C 10 km+ - 240° 240° 9 kt METAR EGKK 302220Z 24009KT 9999 FEW012 SCT022 16/15 Q0999
22:50
M
16 °C 10 km+ 2,100 ft 230° 230° 10 kt METAR EGKK 302150Z 23010KT 9999 FEW009 BKN021 16/15 Q0998
22:20
I
15 °C 8 km 700 ft 230° 230° 10 kt METAR EGKK 302120Z 23010KT 200V260 8000 -RA BKN007 15/15 Q0998 RERA
21:50
I
15 °C 3 km 700 ft 210° 210° 11 kt METAR EGKK 302050Z 21011KT 3000 RA SCT006 BKN007 15/14 Q0999
21:20
I
14 °C 4 km 700 ft 210° 210° 11 kt METAR EGKK 302020Z 21011KT 4000 -RA BKN007 14/14 Q0999
20:50
I
14 °C 4.5 km 1,100 ft 210° 210° 15 - 27 kt METAR EGKK 301950Z 21015G27KT 4500 -RA SCT007 BKN011 14/13 Q1000 RERA
20:20
I
14 °C 3.5 km 700 ft 210° 210° 14 - 30 kt METAR EGKK 301920Z 21014G30KT 170V240 3500 RA BKN007 14/13 Q1000
19:50
M
14 °C 10 km+ 1,000 ft 200° 200° 13 kt METAR EGKK 301850Z 20013KT 150V230 9999 -RA SCT008 BKN010 14/13 Q1001 RERA
19:20
M
14 °C 6 km 1,000 ft 210° 210° 16 kt METAR EGKK 301820Z 21016KT 6000 RA SCT008 BKN010 14/12 Q1002 RERA
18:50
I
13 °C 4 km 1,000 ft 200° 200° 12 kt METAR EGKK 301750Z 20012KT 160V230 4000 RA SCT008 BKN010 13/12 Q1002
18:20
M
13 °C 9 km 2,000 ft 210° 210° 13 kt METAR EGKK 301720Z 21013KT 180V240 9000 -RA SCT013 BKN020 13/12 Q1003
17:50
M
13 °C 10 km+ 2,800 ft 210° 210° 13 - 23 kt METAR EGKK 301650Z 21013G23KT 9999 -RA SCT012 BKN028 13/12 Q1003
17:20
M
13 °C 10 km+ 2,400 ft 210° 210° 11 kt METAR EGKK 301620Z 21011KT 9999 -RA SCT011 BKN024 13/12 Q1004
16:50
V
13 °C 9 km 3,000 ft 210° 210° 11 kt METAR EGKK 301550Z 21011KT 170V240 9000 -RA SCT015 BKN030 13/12 Q1004
16:20
V
14 °C 10 km+ 4,500 ft 210° 210° 12 kt METAR EGKK 301520Z 21012KT 9999 -RA SCT025 BKN045 14/11 Q1005
15:50
V
15 °C 10 km+ - 210° 210° 13 kt METAR EGKK 301450Z 21013KT 9999 -SHRA FEW029 15/10 Q1005
15:20
V
15 °C 10 km+ - 220° 220° 12 kt METAR EGKK 301420Z 22012KT 9999 FEW028 SCT046 15/10 Q1005
14:50
V
15 °C 10 km+ - 210° 210° 12 kt METAR EGKK 301350Z 21012KT 180V250 9999 SCT027 15/10 Q1006
14:20
V
16 °C 10 km+ - 210° 210° 12 kt METAR EGKK 301320Z 21012KT 9999 SCT028 16/09 Q1006
13:50
V
16 °C 10 km+ - 210° 210° 12 kt METAR EGKK 301250Z 21012KT 170V250 9999 FEW032 16/09 Q1006
13:20
V
16 °C 10 km+ - 220° 220° 9 kt METAR EGKK 301220Z 22009KT 170V250 9999 FEW032 16/09 Q1007
12:50
V
16 °C 10 km+ - 210° 210° 12 kt METAR EGKK 301150Z 21012KT 180V250 9999 SCT028 16/09 Q1007
12:20
V
16 °C 10 km+ - 210° 210° 10 kt METAR EGKK 301120Z 21010KT 180V240 9999 FEW026 16/10 Q1008
11:50
V
15 °C 10 km+ - 210° 210° 8 kt METAR EGKK 301050Z 21008KT CAVOK 15/10 Q1008
11:20
V
15 °C 10 km+ - 210° 210° 8 kt METAR EGKK 301020Z 21008KT CAVOK 15/10 Q1008
10:50
V
14 °C 10 km+ - 220° 220° 6 kt METAR EGKK 300950Z 22006KT CAVOK 14/09 Q1009
10:20
V
14 °C 10 km+ - 220° 220° 8 kt METAR EGKK 300920Z 22008KT CAVOK 14/09 Q1009
09:50
V
14 °C 10 km+ - 220° 220° 6 kt METAR EGKK 300850Z 22006KT 190V260 CAVOK 14/10 Q1009
09:20
V
11 °C 10 km+ - 240° 240° 3 kt METAR EGKK 300820Z 24003KT 200V270 CAVOK 11/09 Q1009
08:50
V
9 °C 10 km+ - Var Var 1 kt METAR EGKK 300750Z VRB01KT CAVOK 09/08 Q1009
08:20
V
7 °C 9 km - Var Var 1 kt METAR EGKK 300720Z VRB01KT 9000 NSC 07/07 Q1009
07:50
V
5 °C 9 km - 260° 260° 2 kt METAR EGKK 300650Z 26002KT 9000 VCFG NSC 05/05 Q1009
07:20
V
5 °C 8 km - Var Var 1 kt METAR EGKK 300620Z VRB01KT 8000 VCFG NSC 05/05 Q1010
06:50
M
5 °C 7 km - 150° 150° 1 kt METAR EGKK 300550Z 15001KT 7000 MIFG NSC 05/04 Q1010
06:20
V
6 °C 10 km+ - 150° 150° 1 kt METAR EGKK 300520Z 15001KT CAVOK 06/05 Q1010
05:50
V
6 °C 10 km+ - Var Var 1 kt METAR EGKK 300450Z VRB01KT CAVOK 06/05 Q1010
05:20
V
6 °C 10 km+ - Var Var 2 kt METAR EGKK 300420Z VRB02KT CAVOK 06/05 Q1010
04:50
V
6 °C 10 km+ - 270° 270° 2 kt METAR EGKK 300350Z 27002KT CAVOK 06/05 Q1009
04:20
V
7 °C 10 km+ - Var Var 1 kt METAR EGKK 300320Z VRB01KT CAVOK 07/06 Q1009
03:50
V
7 °C 10 km+ - 160° 160° 1 kt METAR EGKK 300250Z 16001KT CAVOK 07/06 Q1009
03:20
V
7 °C 10 km+ - Var Var 1 kt METAR EGKK 300220Z VRB01KT CAVOK 07/06 Q1009
02:50
V
7 °C 10 km+ - 210° 210° 1 kt METAR EGKK 300150Z 21001KT CAVOK 07/06 Q1009
02:20
V
6 °C 10 km+ - 210° 210° 1 kt METAR EGKK 300120Z 21001KT CAVOK 06/06 Q1009
01:50
V
6 °C 10 km+ - Var Var 2 kt METAR EGKK 300050Z VRB02KT CAVOK 06/05 Q1009
01:20
V
6 °C 10 km+ - 270° 270° 1 kt METAR EGKK 300020Z 27001KT CAVOK 06/05 Q1008
00:50
V
6 °C 10 km+ - Var Var 1 kt METAR EGKK 292350Z VRB01KT CAVOK 06/05 Q1009
00:20
V
6 °C 10 km+ - 190° 190° 2 kt METAR EGKK 292320Z 19002KT CAVOK 06/05 Q1009

September 29, 2022

Time Code Weather Temp. Visibility Ceiling Wind METAR/SPECI
23:50
V
6 °C 10 km+ - Var Var 1 kt METAR EGKK 292250Z VRB01KT CAVOK 06/05 Q1009
23:20
V
6 °C 10 km+ - Var Var 2 kt METAR EGKK 292220Z VRB02KT CAVOK 06/05 Q1009
22:50
V
7 °C 10 km+ - 180° 180° 1 kt METAR EGKK 292150Z 18001KT CAVOK 07/06 Q1009
22:20
V
7 °C 10 km+ - 160° 160° 1 kt METAR EGKK 292120Z 16001KT CAVOK 07/06 Q1009
21:50
V
7 °C 10 km+ - Var Var 2 kt METAR EGKK 292050Z VRB02KT CAVOK 07/06 Q1009
21:20
V
8 °C 10 km+ - Var Var 2 kt METAR EGKK 292020Z VRB02KT CAVOK 08/06 Q1009
20:50
V
8 °C 10 km+ - Var Var 1 kt METAR EGKK 291950Z VRB01KT CAVOK 08/06 Q1008
20:20
V
9 °C 10 km+ - 190° 190° 1 kt METAR EGKK 291920Z 19001KT CAVOK 09/06 Q1008
19:50
V
9 °C 10 km+ - Var Var 1 kt METAR EGKK 291850Z VRB01KT CAVOK 09/06 Q1007
19:20
V
10 °C 10 km+ - 200° 200° 2 kt METAR EGKK 291820Z 20002KT CAVOK 10/06 Q1007
18:50
V
14 °C 10 km+ - 290° 290° 4 kt METAR EGKK 291750Z 29004KT 230V360 CAVOK 14/05 Q1007
18:20
V
14 °C 10 km+ - Var Var 2 kt METAR EGKK 291720Z VRB02KT CAVOK 14/04 Q1006
17:50
V
15 °C 10 km+ - 030° 030° 3 kt METAR EGKK 291650Z 03003KT 320V080 CAVOK 15/05 Q1006
17:20
V
14 °C 10 km+ - 060° 060° 4 kt METAR EGKK 291620Z 06004KT 020V120 9999 FEW045 14/05 Q1006
16:50
V
15 °C 10 km+ - 340° 340° 4 kt METAR EGKK 291550Z 34004KT 300V030 9999 FEW044 15/05 Q1005
16:20
V
15 °C 10 km+ - Var Var 4 kt METAR EGKK 291520Z VRB04KT 9999 FEW043 15/05 Q1005
15:50
V
16 °C 10 km+ - 060° 060° 4 kt METAR EGKK 291450Z 06004KT 010V080 CAVOK 16/06 Q1005
Older data

We and third parties follow your internet behavior on our website with cookies. If you continue, we assume you agree with our cookie policy. Learn more